createdAt,value
2023-02-19T00:00:38.841Z,100773.59
2023-02-19T00:03:10.147Z,100755.13
2023-02-19T00:05:41.414Z,100778.88
2023-02-19T00:08:12.752Z,100770.94
2023-02-19T00:10:44.181Z,100748.06
2023-02-19T00:13:15.476Z,100726.94
2023-02-19T00:15:46.745Z,100739.25
2023-02-19T00:18:18.025Z,100725.97
2023-02-19T00:20:49.579Z,100776.06
2023-02-19T00:23:20.916Z,100747.88
2023-02-19T00:25:52.359Z,100754.94
2023-02-19T00:28:23.682Z,100751.34
2023-02-19T00:30:54.963Z,100775.09
2023-02-19T00:33:28.518Z,100767.19
2023-02-19T00:36:01.568Z,100768.03
2023-02-19T00:38:36.990Z,100769.78
2023-02-19T00:41:21.446Z,100763.59
2023-02-19T00:43:57.487Z,100766.22
2023-02-19T00:46:32.102Z,100767.97
2023-02-19T00:49:05.025Z,100763.56
2023-02-19T00:51:38.131Z,100750.34
2023-02-19T00:54:10.530Z,100753.00
2023-02-19T00:56:42.028Z,100765.28
2023-02-19T00:59:13.466Z,100747.69
2023-02-19T01:01:45.513Z,100763.53
2023-02-19T01:04:16.995Z,100769.66
2023-02-19T01:06:48.890Z,100766.16
2023-02-19T01:09:20.244Z,100766.16
2023-02-19T01:11:51.505Z,100768.75
2023-02-19T01:14:22.801Z,100772.25
2023-02-19T01:16:54.073Z,100767.91
2023-02-19T01:19:25.726Z,100752.03
2023-02-19T01:21:56.990Z,100780.13
2023-02-19T01:24:28.332Z,100788.81
2023-02-19T01:26:59.669Z,100787.03
2023-02-19T01:29:30.958Z,100780.91
2023-02-19T01:32:02.393Z,100788.81
2023-02-19T01:34:34.068Z,100758.03
2023-02-19T01:37:05.711Z,100779.22
2023-02-19T01:39:37.156Z,100786.22
2023-02-19T01:42:14.637Z,100773.91
2023-02-19T01:44:45.959Z,100773.03
2023-02-19T01:47:19.873Z,100772.19
2023-02-19T01:49:55.707Z,100770.44
2023-02-19T01:52:32.572Z,100735.28
2023-02-19T01:55:07.844Z,100772.19
2023-02-19T01:57:43.434Z,100752.03
2023-02-19T02:00:17.057Z,100763.53
2023-02-19T02:02:52.906Z,100757.34
2023-02-19T02:05:36.455Z,100763.56
2023-02-19T02:08:27.042Z,100762.72
2023-02-19T02:10:58.615Z,100715.22
2023-02-19T02:13:32.342Z,100763.59
2023-02-19T02:16:34.156Z,100762.69
2023-02-19T02:19:30.261Z,100764.38
2023-02-19T02:22:12.320Z,100756.50
2023-02-19T02:25:07.358Z,100751.22
2023-02-19T02:27:47.314Z,100760.03
2023-02-19T02:30:45.662Z,100762.66
2023-02-19T02:33:55.410Z,100766.19
2023-02-19T02:36:37.822Z,100780.16
2023-02-19T02:39:12.935Z,100781.00
2023-02-19T02:42:09.381Z,100777.47
2023-02-19T02:44:42.519Z,100780.09
2023-02-19T02:47:33.868Z,100776.56
2023-02-19T02:50:05.472Z,100779.19
2023-02-19T02:53:01.490Z,100760.72
2023-02-19T02:55:38.802Z,100781.78
2023-02-19T02:58:13.069Z,100784.34
2023-02-19T03:01:09.962Z,100764.97
2023-02-19T03:03:44.033Z,100770.22
2023-02-19T03:06:19.346Z,100786.88
2023-02-19T03:09:04.998Z,100770.13
2023-02-19T03:11:58.736Z,100795.53
2023-02-19T03:15:01.438Z,100794.56
2023-02-19T03:18:01.103Z,100791.94
2023-02-19T03:20:35.872Z,100798.94
2023-02-19T03:23:10.548Z,100782.19
2023-02-19T03:26:01.315Z,100793.56
2023-02-19T03:28:56.351Z,100790.00
2023-02-19T03:31:30.972Z,100808.41
2023-02-19T03:34:10.097Z,100804.88
2023-02-19T03:36:48.316Z,100811.00
2023-02-19T03:39:21.859Z,100813.63
2023-02-19T03:42:02.642Z,100797.78
2023-02-19T03:44:48.039Z,100817.97
2023-02-19T03:47:30.043Z,100809.97
2023-02-19T03:50:25.058Z,100802.00
2023-02-19T03:53:44.725Z,100824.94
2023-02-19T03:56:28.315Z,100783.44
2023-02-19T03:59:14.413Z,100821.34
2023-02-19T04:01:54.328Z,100840.63
2023-02-19T04:04:32.112Z,100838.88
2023-02-19T04:07:03.753Z,100823.88
2023-02-19T04:09:43.064Z,100853.75
2023-02-19T04:12:15.507Z,100846.72
2023-02-19T04:15:01.831Z,100831.81
2023-02-19T04:17:37.396Z,100849.47
2023-02-19T04:20:10.858Z,100836.25
2023-02-19T04:22:42.403Z,100860.00
2023-02-19T04:25:13.941Z,100837.09
2023-02-19T04:27:45.927Z,100873.22
2023-02-19T04:30:17.411Z,100878.50
2023-02-19T04:32:48.722Z,100892.59
2023-02-19T04:35:20.053Z,100878.50
2023-02-19T04:37:51.323Z,100898.72
2023-02-19T04:40:22.608Z,100898.78
2023-02-19T04:42:53.927Z,100875.00
2023-02-19T04:45:25.201Z,100913.69
2023-02-19T04:47:58.664Z,100910.22
2023-02-19T04:50:30.010Z,100911.06
2023-02-19T04:53:01.254Z,100917.22
2023-02-19T04:55:37.795Z,100906.66
2023-02-19T04:58:09.064Z,100918.97
2023-02-19T05:00:40.326Z,100927.72
2023-02-19T05:03:11.621Z,100924.97
2023-02-19T05:05:42.965Z,100924.16
2023-02-19T05:08:14.280Z,100932.09
2023-02-19T05:10:45.574Z,100934.75
2023-02-19T05:13:16.899Z,100923.34
2023-02-19T05:15:59.982Z,100934.69
2023-02-19T05:18:32.592Z,100937.31
2023-02-19T05:21:04.157Z,100944.22
2023-02-19T05:23:35.705Z,100938.84
2023-02-19T05:26:09.296Z,100946.63
2023-02-19T05:28:40.717Z,100956.09
2023-02-19T05:31:12.871Z,100934.78
2023-02-19T05:33:45.776Z,100965.47
2023-02-19T05:36:18.393Z,100967.94
2023-02-19T05:38:54.987Z,100953.69
2023-02-19T05:41:28.917Z,100962.38
2023-02-19T05:44:00.393Z,100971.94
2023-02-19T05:46:31.863Z,100977.94
2023-02-19T05:49:04.163Z,100959.25
2023-02-19T05:51:35.542Z,100982.88
2023-02-19T05:54:06.840Z,100966.00
2023-02-19T05:56:42.128Z,100983.50
2023-02-19T05:59:22.590Z,100982.50
2023-02-19T06:01:55.078Z,100966.41
2023-02-19T06:04:26.622Z,100984.69
2023-02-19T06:06:57.923Z,100997.69
2023-02-19T06:09:29.262Z,101016.84
2023-02-19T06:12:00.546Z,101001.75
2023-02-19T06:14:31.792Z,101019.94
2023-02-19T06:17:03.044Z,101039.28
2023-02-19T06:19:34.422Z,101018.84
2023-02-19T06:22:05.689Z,101038.09
2023-02-19T06:24:37.647Z,101055.63
2023-02-19T06:27:09.859Z,101051.19
2023-02-19T06:29:41.146Z,101050.06
2023-02-19T06:32:12.565Z,101078.19
2023-02-19T06:34:43.899Z,101076.59
2023-02-19T06:37:15.174Z,101078.53
2023-02-19T06:39:46.517Z,101061.72
2023-02-19T06:42:17.813Z,101092.66
2023-02-19T06:44:49.145Z,101089.97
2023-02-19T06:47:20.400Z,101087.44
2023-02-19T06:49:51.711Z,101110.22
2023-02-19T06:52:22.993Z,101114.59
2023-02-19T06:54:54.249Z,101120.75
2023-02-19T06:57:25.496Z,101133.94
2023-02-19T06:59:56.770Z,101129.56
2023-02-19T07:02:28.015Z,101129.47
2023-02-19T07:04:59.284Z,101146.00
2023-02-19T07:07:30.554Z,101134.41
2023-02-19T07:10:01.827Z,101131.72
2023-02-19T07:12:33.107Z,101144.91
2023-02-19T07:15:04.510Z,101150.09
2023-02-19T07:17:35.877Z,101130.53
2023-02-19T07:20:07.268Z,101157.13
2023-02-19T07:22:38.535Z,101163.28
2023-02-19T07:25:09.791Z,101158.69
2023-02-19T07:27:41.104Z,101179.19
2023-02-19T07:30:12.879Z,101184.69
2023-02-19T07:32:45.331Z,101194.44
2023-02-19T07:35:16.719Z,101205.97
2023-02-19T07:37:47.989Z,101202.72
2023-02-19T07:40:19.258Z,101204.78
2023-02-19T07:42:50.528Z,101156.34
2023-02-19T07:45:21.776Z,101215.72
2023-02-19T07:47:53.020Z,101227.38
2023-02-19T07:50:24.308Z,101205.56
2023-02-19T07:52:55.542Z,101227.88
2023-02-19T07:55:26.854Z,101224.34
2023-02-19T07:57:59.301Z,101230.59
2023-02-19T08:00:30.608Z,101252.56
2023-02-19T08:03:02.151Z,101230.38
2023-02-19T08:05:37.646Z,101248.03
2023-02-19T08:08:11.666Z,101271.66
2023-02-19T08:11:02.010Z,101267.16
2023-02-19T08:13:34.164Z,101267.13
2023-02-19T08:16:17.035Z,101273.34
2023-02-19T08:18:50.074Z,101255.94
2023-02-19T08:21:21.381Z,101273.88
2023-02-19T08:23:52.652Z,101275.81
2023-02-19T08:26:23.918Z,101261.84
2023-02-19T08:28:55.186Z,101269.97
2023-02-19T08:31:27.329Z,101279.91
2023-02-19T08:33:58.829Z,101278.25
2023-02-19T08:36:30.191Z,101282.72
2023-02-19T08:39:01.453Z,101281.09
2023-02-19T08:41:32.809Z,101288.22
2023-02-19T08:44:04.128Z,101294.44
2023-02-19T08:46:35.647Z,101282.06
2023-02-19T08:49:06.960Z,101299.88
2023-02-19T08:51:38.255Z,101294.00
2023-02-19T08:54:09.490Z,101302.00
2023-02-19T08:56:40.842Z,101299.41
2023-02-19T08:59:12.084Z,101321.53
2023-02-19T09:01:43.535Z,101333.06
2023-02-19T09:04:14.898Z,101332.28
2023-02-19T09:06:46.361Z,101340.38
2023-02-19T09:09:18.737Z,101343.00
2023-02-19T09:11:49.987Z,101348.34
2023-02-19T09:14:21.236Z,101350.06
2023-02-19T09:16:52.476Z,101352.91
2023-02-19T09:19:25.000Z,101354.00
2023-02-19T09:21:56.390Z,101351.50
2023-02-19T09:24:27.664Z,101351.72
2023-02-19T09:26:59.278Z,101343.00
2023-02-19T09:29:30.581Z,101365.03
2023-02-19T09:32:02.879Z,101364.28
2023-02-19T09:34:34.272Z,101364.41
2023-02-19T09:37:06.743Z,101369.69
2023-02-19T09:39:38.119Z,101381.13
2023-02-19T09:42:22.163Z,101380.28
2023-02-19T09:44:56.272Z,101388.25
2023-02-19T09:47:32.681Z,101386.63
2023-02-19T09:50:09.200Z,101386.63
2023-02-19T09:53:01.294Z,101396.31
2023-02-19T09:55:38.598Z,101383.13
2023-02-19T09:58:25.690Z,101414.16
2023-02-19T10:01:00.127Z,101419.47
2023-02-19T10:03:35.350Z,101437.16
2023-02-19T10:06:23.394Z,101435.44
2023-02-19T10:09:13.384Z,101444.16
2023-02-19T10:11:44.991Z,101432.59
2023-02-19T10:14:39.777Z,101455.50
2023-02-19T10:17:21.652Z,101432.44
2023-02-19T10:19:53.717Z,101458.78
2023-02-19T10:22:26.294Z,101460.41
2023-02-19T10:24:58.620Z,101466.69
2023-02-19T10:27:31.207Z,101458.97
2023-02-19T10:30:02.621Z,101439.53
2023-02-19T10:32:33.938Z,101446.69
2023-02-19T10:35:13.757Z,101450.41
2023-02-19T10:37:48.312Z,101466.38
2023-02-19T10:40:22.724Z,101456.69
2023-02-19T10:42:58.724Z,101469.03
2023-02-19T10:45:47.590Z,101468.13
2023-02-19T10:48:42.198Z,101462.91
2023-02-19T10:51:20.774Z,101466.47
2023-02-19T10:54:04.233Z,101483.13
2023-02-19T10:56:38.393Z,101468.19
2023-02-19T10:59:18.570Z,101491.22
2023-02-19T11:02:15.665Z,101486.94
2023-02-19T11:05:16.634Z,101494.09
2023-02-19T11:07:55.045Z,101503.03
2023-02-19T11:10:36.230Z,101510.13
2023-02-19T11:13:16.197Z,101498.56
2023-02-19T11:15:52.855Z,101517.09
2023-02-19T11:18:28.666Z,101519.78
2023-02-19T11:21:05.209Z,101507.50
2023-02-19T11:23:46.946Z,101512.84
2023-02-19T11:26:24.180Z,101505.81
2023-02-19T11:28:57.866Z,101496.94
2023-02-19T11:31:32.274Z,101515.53
2023-02-19T11:34:20.883Z,101505.88
2023-02-19T11:37:10.349Z,101523.50
2023-02-19T11:39:47.843Z,101512.84
2023-02-19T11:42:29.263Z,101520.78
2023-02-19T11:45:31.215Z,101511.91
2023-02-19T11:48:16.448Z,101483.63
2023-02-19T11:50:57.544Z,101518.97
2023-02-19T11:53:32.265Z,101505.72
2023-02-19T11:56:20.503Z,101517.22
2023-02-19T11:59:13.670Z,101474.91
2023-02-19T12:02:18.730Z,101524.34
2023-02-19T12:05:17.869Z,101520.78
2023-02-19T12:08:05.408Z,101526.97
2023-02-19T12:11:13.806Z,101515.47
2023-02-19T12:14:01.189Z,101530.38
2023-02-19T12:17:03.129Z,101517.97
2023-02-19T12:19:49.496Z,101524.94
2023-02-19T12:22:28.847Z,101531.91
2023-02-19T12:25:34.665Z,101538.88
2023-02-19T12:28:25.488Z,101524.78
2023-02-19T12:31:18.873Z,101538.22
2023-02-19T12:34:14.908Z,101544.53
2023-02-19T12:37:06.206Z,101555.22
2023-02-19T12:39:53.419Z,101537.66
2023-02-19T12:42:55.588Z,101546.56
2023-02-19T12:45:35.460Z,101546.59
2023-02-19T12:48:19.010Z,101529.84
2023-02-19T12:50:56.743Z,101544.81
2023-02-19T12:53:42.019Z,101546.56
2023-02-19T12:56:25.095Z,101533.28
2023-02-19T12:59:03.797Z,101542.97
2023-02-19T13:01:46.718Z,101525.28
2023-02-19T13:04:40.865Z,101534.13
2023-02-19T13:07:30.326Z,101513.84
2023-02-19T13:10:39.877Z,101539.44
2023-02-19T13:13:30.615Z,101533.31
2023-02-19T13:16:18.616Z,101522.75
2023-02-19T13:18:58.020Z,101507.75
2023-02-19T13:21:51.080Z,101501.56
2023-02-19T13:24:37.364Z,101525.38
2023-02-19T13:27:28.215Z,101521.81
2023-02-19T13:30:32.336Z,101518.31
2023-02-19T13:33:25.563Z,101514.81
2023-02-19T13:36:25.913Z,101514.81
2023-02-19T13:38:59.374Z,101505.94
2023-02-19T13:41:42.986Z,101532.41
2023-02-19T13:44:18.724Z,101529.75
2023-02-19T13:46:50.800Z,101505.06
2023-02-19T13:49:28.211Z,101507.72
2023-02-19T13:52:01.886Z,101511.25
2023-02-19T13:54:40.206Z,101517.44
2023-02-19T13:57:23.403Z,101528.94
2023-02-19T13:59:57.387Z,101533.34
2023-02-19T14:02:32.432Z,101494.47
2023-02-19T14:05:10.407Z,101532.47
2023-02-19T14:07:51.242Z,101544.81
2023-02-19T14:10:57.535Z,101547.47
2023-02-19T14:13:47.377Z,101548.34
2023-02-19T14:16:39.812Z,101551.00
2023-02-19T14:19:15.794Z,101543.06
2023-02-19T14:21:47.088Z,101558.06
2023-02-19T14:24:18.526Z,101544.78
2023-02-19T14:26:49.989Z,101555.38
2023-02-19T14:29:21.595Z,101552.72
2023-02-19T14:31:52.961Z,101539.50
2023-02-19T14:34:26.254Z,101505.94
2023-02-19T14:37:02.054Z,101538.66
2023-02-19T14:39:38.664Z,101534.25
2023-02-19T14:42:33.395Z,101536.00
2023-02-19T14:45:07.194Z,101515.72
2023-02-19T14:47:38.771Z,101528.94
2023-02-19T14:50:20.308Z,101529.81
2023-02-19T14:52:54.698Z,101518.34
2023-02-19T14:55:29.582Z,101524.50
2023-02-19T14:58:06.174Z,101513.88
2023-02-19T15:00:39.615Z,101520.91
2023-02-19T15:03:35.639Z,101504.09
2023-02-19T15:06:18.472Z,101509.38
2023-02-19T15:08:54.588Z,101520.78
2023-02-19T15:11:29.631Z,101524.28
2023-02-19T15:14:04.329Z,101517.19
2023-02-19T15:16:36.405Z,101514.53
2023-02-19T15:19:09.881Z,101523.31
2023-02-19T15:21:47.776Z,101505.59
2023-02-19T15:24:19.438Z,101496.75
2023-02-19T15:26:54.074Z,101529.38
2023-02-19T15:29:27.281Z,101500.22
2023-02-19T15:32:00.979Z,101517.88
2023-02-19T15:34:32.570Z,101506.38
2023-02-19T15:37:07.702Z,101506.34
2023-02-19T15:39:43.538Z,101503.56
2023-02-19T15:42:30.325Z,101497.34
2023-02-19T15:45:01.508Z,101520.25
2023-02-19T15:47:42.469Z,101501.66
2023-02-19T15:50:18.650Z,101515.69
2023-02-19T15:53:07.112Z,101529.75
2023-02-19T15:56:00.132Z,101543.72
2023-02-19T15:58:48.246Z,101546.28
2023-02-19T16:01:27.123Z,101555.03
2023-02-19T16:03:58.728Z,101538.19
2023-02-19T16:06:30.502Z,101530.22
2023-02-19T16:09:05.632Z,101542.53
2023-02-19T16:11:39.564Z,101549.50
2023-02-19T16:14:30.659Z,101560.00
2023-02-19T16:17:10.973Z,101559.88
2023-02-19T16:19:48.699Z,101555.41
2023-02-19T16:22:24.189Z,101535.91
2023-02-19T16:25:00.375Z,101529.56
2023-02-19T16:27:42.128Z,101550.81
2023-02-19T16:30:16.119Z,101547.19
2023-02-19T16:32:47.518Z,101544.47
2023-02-19T16:35:42.411Z,101556.72
2023-02-19T16:38:18.299Z,101535.41
2023-02-19T16:40:50.760Z,101556.53
2023-02-19T16:43:31.373Z,101563.50
2023-02-19T16:46:02.824Z,101554.53
2023-02-19T16:48:34.242Z,101546.63
2023-02-19T16:51:07.158Z,101556.47
2023-02-19T16:53:38.562Z,101554.69
2023-02-19T16:56:22.873Z,101565.16
2023-02-19T16:58:54.151Z,101551.66
2023-02-19T17:01:26.793Z,101563.16
2023-02-19T17:04:02.759Z,101547.28
2023-02-19T17:06:34.797Z,101560.66
2023-02-19T17:09:08.349Z,101551.75
2023-02-19T17:11:39.678Z,101539.34
2023-02-19T17:14:11.064Z,101569.47
2023-02-19T17:16:43.352Z,101568.63
2023-02-19T17:19:18.928Z,101574.03
2023-02-19T17:21:50.351Z,101572.31
2023-02-19T17:24:21.673Z,101577.56
2023-02-19T17:26:52.958Z,101574.94
2023-02-19T17:29:24.623Z,101567.03
2023-02-19T17:31:55.937Z,101561.75
2023-02-19T17:34:27.627Z,101557.41
2023-02-19T17:36:59.336Z,101555.72
2023-02-19T17:39:31.687Z,101560.19
2023-02-19T17:42:03.228Z,101569.00
2023-02-19T17:44:34.710Z,101574.31
2023-02-19T17:47:06.098Z,101571.69
2023-02-19T17:49:37.375Z,101571.63
2023-02-19T17:52:08.622Z,101562.72
2023-02-19T17:54:40.022Z,101556.31
2023-02-19T17:57:11.326Z,101576.44
2023-02-19T17:59:42.578Z,101585.94
2023-02-19T18:02:13.824Z,101581.28
2023-02-19T18:04:45.089Z,101590.94
2023-02-19T18:07:16.391Z,101582.75
2023-02-19T18:09:47.690Z,101601.28
2023-02-19T18:12:18.970Z,101567.53
2023-02-19T18:14:50.282Z,101573.72
2023-02-19T18:17:21.553Z,101605.59
2023-02-19T18:19:53.326Z,101605.69
2023-02-19T18:22:24.716Z,101585.41
2023-02-19T18:24:56.046Z,101589.84
2023-02-19T18:27:27.299Z,101613.69
2023-02-19T18:29:58.609Z,101613.69
2023-02-19T18:32:30.348Z,101605.66
2023-02-19T18:35:01.902Z,101619.00
2023-02-19T18:37:33.865Z,101610.19
2023-02-19T18:40:06.067Z,101596.06
2023-02-19T18:42:37.476Z,101615.50
2023-02-19T18:45:08.897Z,101591.56
2023-02-19T18:47:40.293Z,101607.59
2023-02-19T18:50:12.494Z,101606.75
2023-02-19T18:52:44.104Z,101599.72
2023-02-19T18:55:15.454Z,101576.75
2023-02-19T18:57:48.996Z,101597.16
2023-02-19T19:00:26.367Z,101594.56
2023-02-19T19:02:59.526Z,101579.63
2023-02-19T19:05:30.927Z,101586.69
2023-02-19T19:08:02.533Z,101580.53
2023-02-19T19:10:34.024Z,101578.81
2023-02-19T19:13:06.424Z,101582.34
2023-02-19T19:15:40.239Z,101555.84
2023-02-19T19:18:12.333Z,101562.88
2023-02-19T19:20:44.008Z,101575.28
2023-02-19T19:23:15.263Z,101560.19
2023-02-19T19:25:46.529Z,101578.66
2023-02-19T19:28:18.315Z,101576.81
2023-02-19T19:30:49.830Z,101548.44
2023-02-19T19:33:21.201Z,101564.31
2023-02-19T19:35:52.534Z,101564.16
2023-02-19T19:38:24.060Z,101563.94
2023-02-19T19:40:55.325Z,101539.97
2023-02-19T19:43:28.596Z,101566.31
2023-02-19T19:46:00.504Z,101565.25
2023-02-19T19:48:33.031Z,101569.47
2023-02-19T19:51:04.537Z,101569.28
2023-02-19T19:53:35.910Z,101543.50
2023-02-19T19:56:07.855Z,101562.75
2023-02-19T19:58:40.215Z,101543.00
2023-02-19T20:01:11.888Z,101568.47
2023-02-19T20:03:43.446Z,101577.94
2023-02-19T20:06:14.839Z,101564.56
2023-02-19T20:08:46.105Z,101540.53
2023-02-19T20:11:17.494Z,101567.72
2023-02-19T20:13:48.776Z,101567.53
2023-02-19T20:16:24.923Z,101579.84
2023-02-19T20:18:56.246Z,101554.88
2023-02-19T20:21:27.595Z,101571.69
2023-02-19T20:23:58.886Z,101574.03
2023-02-19T20:26:30.592Z,101563.47
2023-02-19T20:29:04.172Z,101564.31
2023-02-19T20:31:36.926Z,101548.34
2023-02-19T20:34:08.319Z,101541.16
2023-02-19T20:36:44.258Z,101534.97
2023-02-19T20:39:17.486Z,101530.38
2023-02-19T20:41:50.902Z,101553.31
2023-02-19T20:44:22.263Z,101558.66
2023-02-19T20:46:54.260Z,101553.41
2023-02-19T20:49:28.925Z,101549.00
2023-02-19T20:52:04.831Z,101544.50
2023-02-19T20:54:36.291Z,101557.84
2023-02-19T20:57:07.863Z,101549.06
2023-02-19T20:59:40.651Z,101556.13
2023-02-19T21:02:18.392Z,101545.75
2023-02-19T21:04:49.879Z,101530.66
2023-02-19T21:07:21.188Z,101555.50
2023-02-19T21:09:52.888Z,101539.69
2023-02-19T21:12:24.195Z,101554.03
2023-02-19T21:14:55.454Z,101542.66
2023-02-19T21:17:26.810Z,101553.47
2023-02-19T21:19:58.059Z,101545.72
2023-02-19T21:22:29.357Z,101545.03
2023-02-19T21:25:00.651Z,101520.44
2023-02-19T21:27:31.907Z,101538.97
2023-02-19T21:30:07.020Z,101546.28
2023-02-19T21:32:38.289Z,101500.28
2023-02-19T21:35:09.647Z,101550.03
2023-02-19T21:37:42.736Z,101534.19
2023-02-19T21:40:14.352Z,101547.56
2023-02-19T21:42:45.669Z,101544.16
2023-02-19T21:45:17.044Z,101508.00
2023-02-19T21:47:51.908Z,101531.97
2023-02-19T21:50:23.179Z,101511.66
2023-02-19T21:52:55.100Z,101514.31
2023-02-19T21:55:26.638Z,101507.19
2023-02-19T21:57:58.236Z,101508.88
2023-02-19T22:00:30.155Z,101492.81
2023-02-19T22:03:01.762Z,101490.09
2023-02-19T22:05:33.060Z,101497.91
2023-02-19T22:08:04.662Z,101500.63
2023-02-19T22:10:36.120Z,101498.94
2023-02-19T22:13:07.365Z,101497.16
2023-02-19T22:15:38.764Z,101502.72
2023-02-19T22:18:10.009Z,101497.59
2023-02-19T22:20:41.323Z,101483.72
2023-02-19T22:23:12.584Z,101482.06
2023-02-19T22:25:43.911Z,101476.88
2023-02-19T22:28:15.176Z,101478.63
2023-02-19T22:30:46.613Z,101487.44
2023-02-19T22:33:17.902Z,101479.63
2023-02-19T22:35:49.165Z,101471.78
2023-02-19T22:38:20.425Z,101478.81
2023-02-19T22:40:51.803Z,101490.25
2023-02-19T22:43:23.070Z,101489.44
2023-02-19T22:45:54.393Z,101474.38
2023-02-19T22:48:30.016Z,101475.47
2023-02-19T22:51:02.359Z,101494.16
2023-02-19T22:53:33.623Z,101496.00
2023-02-19T22:56:05.233Z,101507.47
2023-02-19T22:58:36.470Z,101510.16
2023-02-19T23:01:08.801Z,101486.38
2023-02-19T23:03:54.350Z,101499.69
2023-02-19T23:06:28.910Z,101500.63
2023-02-19T23:09:11.087Z,101497.19
2023-02-19T23:11:42.544Z,101496.31
2023-02-19T23:14:17.957Z,101492.81
2023-02-19T23:16:49.306Z,101491.09
2023-02-19T23:19:20.782Z,101458.47
2023-02-19T23:21:52.209Z,101486.66
2023-02-19T23:24:23.483Z,101477.88
2023-02-19T23:26:54.891Z,101459.38
2023-02-19T23:29:26.998Z,101455.97
2023-02-19T23:32:00.380Z,101463.00
2023-02-19T23:34:31.745Z,101382.63
2023-02-19T23:37:03.088Z,101404.78
2023-02-19T23:39:34.389Z,101445.59
2023-02-19T23:42:05.722Z,101439.50
2023-02-19T23:44:36.982Z,101435.16
2023-02-19T23:47:08.251Z,101429.94
2023-02-19T23:49:39.983Z,101437.06
2023-02-19T23:52:11.325Z,101422.94
2023-02-19T23:54:42.572Z,101423.13
2023-02-19T23:57:14.948Z,101421.38
2023-02-19T23:59:48.956Z,101410.00
